Time;durP1;ratioP1;P1;durP2;ratioP2;P2;SDS_P1;SDS_P2;PMS_P1;PMS_P2;Temp;Humidity;BMP_temperature;BMP_pressure;BME280_temperature;BME280_humidity;BME280_pressure;Samples;Min_cycle;Max_cycle;Signal;HPM_P1;HPM_P2
2021/08/07 00:02:18;;;;;;;4.38;2.72;;;;;;;21.22;49.60;96265.13;5003869;28;20448;-63
2021/08/07 00:04:45;;;;;;;8.32;2.65;;;;;;;21.16;49.74;96258.50;5004143;28;20046;-64
2021/08/07 00:07:12;;;;;;;3.33;3.05;;;;;;;20.85;49.63;96206.91;5002334;28;20077;-64
2021/08/07 00:09:38;;;;;;;7.78;2.80;;;;;;;21.25;49.96;96255.75;5003792;28;20497;-64
2021/08/07 00:12:05;;;;;;;3.75;2.63;;;;;;;21.00;50.48;96255.88;5003726;28;20170;-64
2021/08/07 00:14:32;;;;;;;5.57;3.00;;;;;;;20.66;50.65;96227.72;5003953;28;20144;-64
2021/08/07 00:16:59;;;;;;;3.90;2.42;;;;;;;20.87;50.92;96261.53;5001720;28;20046;-65
2021/08/07 00:19:26;;;;;;;4.50;2.22;;;;;;;20.95;50.87;96276.13;5003202;28;20062;-66
2021/08/07 00:21:53;;;;;;;3.45;2.53;;;;;;;20.70;50.78;96234.00;5002025;28;20054;-65
2021/08/07 00:24:20;;;;;;;3.05;2.53;;;;;;;20.60;51.13;96223.91;5002310;28;20056;-64
2021/08/07 00:26:46;;;;;;;3.95;2.72;;;;;;;20.04;50.95;96152.72;5001701;28;20475;-64
2021/08/07 00:29:13;;;;;;;4.60;2.70;;;;;;;20.91;50.85;96278.31;5001740;28;20505;-63
2021/08/07 00:31:40;;;;;;;5.03;2.50;;;;;;;20.77;51.46;96273.19;5001425;28;20054;-63
2021/08/07 00:34:06;;;;;;;5.00;2.83;;;;;;;20.88;51.32;96280.00;5001731;28;20598;-64
2021/08/07 00:36:33;;;;;;;13.20;4.45;;;;;;;20.83;51.18;96286.19;5002982;28;20440;-63
2021/08/07 00:39:00;;;;;;;12.73;4.60;;;;;;;20.23;51.53;96179.81;5001676;28;20680;-65
2021/08/07 00:41:27;;;;;;;9.80;3.15;;;;;;;20.85;51.31;96272.47;5002913;28;20050;-64
2021/08/07 00:43:54;;;;;;;7.85;3.08;;;;;;;20.89;51.20;96264.69;5002413;28;20076;-64
2021/08/07 00:46:20;;;;;;;6.35;2.50;;;;;;;20.82;51.21;96248.03;5006050;28;20723;-65
2021/08/07 00:48:47;;;;;;;3.20;2.40;;;;;;;21.07;50.82;96280.19;5007072;28;20057;-64
2021/08/07 00:51:14;;;;;;;4.47;2.67;;;;;;;21.04;51.01;96286.72;5005223;28;20058;-65
2021/08/07 00:53:41;;;;;;;31.02;8.25;;;;;;;20.84;51.45;96287.00;5005594;28;20060;-65
2021/08/07 00:56:08;;;;;;;6.13;3.22;;;;;;;20.62;51.17;96261.63;5005181;28;20065;-65
2021/08/07 00:58:35;;;;;;;3.20;2.90;;;;;;;20.72;51.66;96256.88;5005118;28;20444;-64
2021/08/07 01:01:09;;;;;;;4.15;2.30;;;;;;;20.91;51.77;96289.56;5005636;28;20060;-64
2021/08/07 01:03:45;;;;;;;3.47;2.38;;;;;;;20.79;51.40;96281.94;5006927;28;20068;-64
2021/08/07 01:06:33;;;;;;;2.67;2.30;;;;;;;20.73;51.16;96283.75;5005101;28;20803;-63
2021/08/07 01:09:09;;;;;;;2.45;2.22;;;;;;;20.58;51.55;96289.09;5006481;28;20053;-64
2021/08/07 01:11:41;;;;;;;3.00;2.42;;;;;;;20.56;51.91;96279.53;5004953;28;20547;-64
2021/08/07 01:14:10;;;;;;;5.32;2.47;;;;;;;20.53;51.85;96280.44;5006536;28;20058;-65
2021/08/07 01:16:41;;;;;;;5.57;2.58;;;;;;;20.55;51.53;96280.78;5005101;28;20128;-65
2021/08/07 01:19:17;;;;;;;3.22;2.60;;;;;;;20.26;51.82;96232.34;5006067;28;20061;-67
2021/08/07 01:21:59;;;;;;;2.67;2.25;;;;;;;20.48;51.72;96289.47;5005174;28;20058;-64
2021/08/07 01:24:37;;;;;;;4.03;2.47;;;;;;;20.26;51.79;96232.34;5006182;28;20093;-65
2021/08/07 01:27:21;;;;;;;3.67;2.45;;;;;;;20.48;51.75;96272.56;5004911;28;20057;-65
2021/08/07 01:29:48;;;;;;;4.57;2.13;;;;;;;20.15;51.77;96238.34;5004734;28;20060;-65
2021/08/07 01:32:16;;;;;;;2.40;2.20;;;;;;;20.59;51.72;96284.25;5005032;28;20144;-64
2021/08/07 01:34:44;;;;;;;3.05;2.10;;;;;;;19.79;52.07;96158.41;5005087;28;20054;-64
2021/08/07 01:37:12;;;;;;;4.82;2.80;;;;;;;20.09;52.39;96231.66;5005779;28;20056;-64
2021/08/07 01:39:45;;;;;;;6.68;3.20;;;;;;;20.38;52.86;96293.41;5006512;28;20061;-65
2021/08/07 01:42:11;;;;;;;3.53;2.60;;;;;;;20.40;52.66;96293.75;5004995;28;20068;-66
2021/08/07 01:44:38;;;;;;;2.70;2.20;;;;;;;20.22;53.42;96276.66;5004634;28;20858;-64
2021/08/07 01:47:15;;;;;;;17.77;15.88;;;;;;;20.08;53.75;96279.91;5004714;28;20602;-64
2021/08/07 01:49:48;;;;;;;16.80;10.95;;;;;;;19.61;55.50;96270.56;5006650;28;20502;-64
2021/08/07 01:52:25;;;;;;;13.10;6.93;;;;;;;19.68;55.45;96282.38;5005915;28;20061;-65
2021/08/07 01:54:57;;;;;;;23.52;7.00;;;;;;;19.46;55.72;96264.59;5006239;28;20144;-64
2021/08/07 01:57:27;;;;;;;16.63;4.97;;;;;;;19.60;56.03;96286.63;5004749;28;20789;-63
2021/08/07 01:59:56;;;;;;;3.50;2.83;;;;;;;18.81;55.79;96163.00;5006079;28;20149;-64
2021/08/07 02:02:24;;;;;;;4.03;2.92;;;;;;;19.66;55.55;96295.31;5006029;28;20520;-65
2021/08/07 02:04:51;;;;;;;3.53;2.70;;;;;;;19.50;55.04;96257.66;5004427;28;20437;-66
2021/08/07 02:07:18;;;;;;;7.25;2.90;;;;;;;19.41;55.39;96262.34;5004358;28;20061;-66
2021/08/07 02:09:47;;;;;;;3.47;3.08;;;;;;;19.76;55.03;96311.84;5003995;28;20616;-64
2021/08/07 02:12:15;;;;;;;3.00;2.72;;;;;;;19.74;55.49;96294.66;5005177;28;20061;-64
2021/08/07 02:14:43;;;;;;;3.35;2.80;;;;;;;19.69;55.41;96294.41;5004459;28;20058;-64
2021/08/07 02:17:11;;;;;;;3.63;2.80;;;;;;;19.73;55.59;96278.25;5004212;28;20069;-65
2021/08/07 02:19:38;;;;;;;3.72;3.13;;;;;;;19.83;55.25;96288.34;5005666;28;20505;-65
2021/08/07 02:22:08;;;;;;;4.00;2.97;;;;;;;19.80;55.06;96289.25;5003572;28;20064;-64
2021/08/07 02:24:35;;;;;;;5.35;2.97;;;;;;;19.83;55.26;96293.97;5005474;28;20137;-64
2021/08/07 02:27:02;;;;;;;6.80;2.88;;;;;;;19.88;55.07;96296.22;5003414;28;20077;-65
2021/08/07 02:29:32;;;;;;;2.80;2.50;;;;;;;19.85;55.10;96288.69;5003345;28;20057;-64
2021/08/07 02:32:00;;;;;;;3.78;2.40;;;;;;;19.59;55.41;96268.22;5003542;28;20108;-64
2021/08/07 02:34:29;;;;;;;3.13;2.45;;;;;;;19.20;55.61;96221.63;5005275;28;20091;-64
2021/08/07 02:36:56;;;;;;;2.88;2.60;;;;;;;19.51;55.90;96295.72;5005138;28;20061;-65
2021/08/07 02:39:25;;;;;;;2.40;2.10;;;;;;;19.53;55.46;96296.09;5003798;28;20501;-64
2021/08/07 02:41:54;;;;;;;4.30;2.35;;;;;;;19.03;56.16;96253.78;5004899;28;20165;-65
2021/08/07 02:44:21;;;;;;;3.38;2.22;;;;;;;19.31;56.24;96302.75;5005080;28;20065;-64
2021/08/07 02:46:49;;;;;;;3.17;2.40;;;;;;;19.34;56.06;96305.47;5003296;28;20058;-64
2021/08/07 02:49:15;;;;;;;2.92;2.60;;;;;;;18.33;56.56;96165.97;5003314;28;20065;-64
2021/08/07 02:51:42;;;;;;;4.63;2.38;;;;;;;18.75;56.38;96223.72;5003939;28;20469;-64
2021/08/07 02:54:10;;;;;;;2.50;2.30;;;;;;;19.07;56.60;96270.53;5003825;28;20152;-64
2021/08/07 02:56:37;;;;;;;3.50;2.25;;;;;;;19.17;56.72;96298.31;5004010;28;20057;-64
2021/08/07 02:59:04;;;;;;;2.85;2.58;;;;;;;18.98;57.39;96290.06;5004581;28;20061;-64
2021/08/07 03:01:31;;;;;;;2.92;2.28;;;;;;;18.41;57.52;96222.69;5004530;28;20056;-66
2021/08/07 03:03:58;;;;;;;2.30;2.10;;;;;;;18.72;58.43;96300.38;5003438;28;20061;-64
2021/08/07 03:06:25;;;;;;;3.67;2.78;;;;;;;18.38;58.68;96262.78;5003613;28;20054;-63
2021/08/07 03:08:52;;;;;;;5.03;2.55;;;;;;;18.55;59.05;96300.84;5003992;28;20085;-64
2021/08/07 03:11:19;;;;;;;7.20;2.53;;;;;;;18.60;58.88;96309.53;5004123;28;20085;-63
2021/08/07 03:13:46;;;;;;;4.60;2.67;;;;;;;18.56;59.10;96314.41;5003145;28;20513;-63
2021/08/07 03:16:13;;;;;;;2.92;2.13;;;;;;;18.26;59.72;96294.34;5004265;28;20058;-64
2021/08/07 03:18:39;;;;;;;2.95;2.28;;;;;;;18.26;59.92;96291.56;5004245;28;20066;-64
2021/08/07 03:21:06;;;;;;;3.35;2.22;;;;;;;17.99;59.79;96269.38;5002349;28;20487;-63
2021/08/07 03:23:33;;;;;;;17.40;7.45;;;;;;;18.14;60.61;96326.66;5002694;28;20164;-65
2021/08/07 03:25:59;;;;;;;8.82;6.63;;;;;;;18.08;61.08;96329.19;5002889;28;20060;-63
2021/08/07 03:28:26;;;;;;;4.03;3.40;;;;;;;17.99;61.37;96331.03;5002714;28;20061;-64
2021/08/07 03:30:53;;;;;;;3.65;2.92;;;;;;;17.45;61.72;96265.47;5004047;28;20085;-63
2021/08/07 03:33:20;;;;;;;3.13;2.20;;;;;;;17.46;61.88;96269.81;5002875;28;20049;-64
2021/08/07 03:35:46;;;;;;;4.90;2.78;;;;;;;17.68;62.63;96340.94;5002414;28;20096;-65
2021/08/07 03:38:13;;;;;;;3.97;2.85;;;;;;;17.72;62.64;96345.25;5003958;28;20124;-65
2021/08/07 03:40:40;;;;;;;6.47;3.33;;;;;;;17.69;62.81;96351.72;5002485;28;20088;-65
2021/08/07 03:43:07;;;;;;;6.22;3.20;;;;;;;17.77;62.63;96357.94;5001910;28;20622;-64
2021/08/07 03:45:34;;;;;;;4.93;3.60;;;;;;;17.81;62.51;96365.03;5003910;28;20065;-64
2021/08/07 03:48:00;;;;;;;7.22;2.80;;;;;;;17.82;62.45;96368.66;5002083;28;20058;-66
2021/08/07 03:50:27;;;;;;;3.47;2.50;;;;;;;17.10;63.05;96274.59;5001935;28;20045;-64
2021/08/07 03:52:54;;;;;;;3.72;2.03;;;;;;;17.08;62.82;96271.41;5002315;28;20046;-63
2021/08/07 03:55:21;;;;;;;5.60;2.60;;;;;;;17.43;63.01;96329.47;5002020;28;20148;-64
2021/08/07 03:57:54;;;;;;;4.25;2.60;;;;;;;17.56;62.49;96341.63;5003893;28;20060;-66
2021/08/07 04:00:23;;;;;;;3.07;2.70;;;;;;;17.83;62.50;96367.44;5002085;28;20060;-63
2021/08/07 04:02:50;;;;;;;2.42;2.22;;;;;;;17.80;62.30;96373.88;5003583;28;20061;-65
2021/08/07 04:05:17;;;;;;;3.60;2.60;;;;;;;17.91;62.33;96392.06;5002237;28;20061;-64
2021/08/07 04:07:45;;;;;;;4.82;2.78;;;;;;;17.57;61.88;96320.78;5003896;28;20058;-64
2021/08/07 04:10:14;;;;;;;4.75;2.40;;;;;;;17.99;61.81;96378.66;5002397;28;20115;-66
2021/08/07 04:12:41;;;;;;;2.42;2.22;;;;;;;18.28;61.11;96399.22;5002253;28;20049;-64
2021/08/07 04:15:08;;;;;;;3.63;2.05;;;;;;;18.45;60.59;96403.66;5002410;28;20061;-65
2021/08/07 04:17:37;;;;;;;6.88;3.10;;;;;;;18.55;60.25;96401.81;5001757;28;20054;-63
2021/08/07 04:20:07;;;;;;;5.85;2.63;;;;;;;18.23;60.03;96349.28;5005184;28;20046;-63
2021/08/07 04:22:34;;;;;;;9.45;2.85;;;;;;;18.24;60.24;96330.44;5007985;28;20503;-64
2021/08/07 04:25:01;;;;;;;2.50;2.10;;;;;;;18.52;59.82;96375.44;5007647;28;20520;-64
2021/08/07 04:27:28;;;;;;;4.18;2.50;;;;;;;18.82;59.82;96405.94;5007560;28;20139;-65
2021/08/07 04:29:54;;;;;;;2.85;2.60;;;;;;;18.93;59.86;96417.69;5006009;28;20531;-64
2021/08/07 04:32:22;;;;;;;3.42;2.80;;;;;;;19.01;59.50;96410.66;5005823;28;20536;-64
2021/08/07 04:34:50;;;;;;;2.83;2.58;;;;;;;19.25;58.79;96422.47;5006007;28;20135;-66
2021/08/07 04:37:16;;;;;;;9.93;2.90;;;;;;;18.52;58.65;96308.13;5005673;28;20136;-64
2021/08/07 04:39:43;;;;;;;8.68;2.67;;;;;;;19.31;58.63;96399.06;5005907;28;20202;-67
2021/08/07 04:42:10;;;;;;;4.80;2.25;;;;;;;19.61;58.25;96441.97;5006880;28;20061;-65
2021/08/07 04:44:37;;;;;;;7.00;3.30;;;;;;;19.70;57.70;96447.72;5007254;28;20116;-65
2021/08/07 04:47:04;;;;;;;5.55;2.50;;;;;;;19.65;57.11;96406.16;5007120;28;20069;-62
2021/08/07 04:49:33;;;;;;;8.15;3.20;;;;;;;19.68;56.37;96408.06;5005555;28;20062;-65
2021/08/07 04:52:00;;;;;;;3.17;2.40;;;;;;;20.17;55.95;96449.56;5006561;28;20399;-65
2021/08/07 04:54:27;;;;;;;7.47;2.95;;;;;;;20.04;55.18;96383.28;5005632;28;20056;-65
2021/08/07 04:56:54;;;;;;;4.32;2.90;;;;;;;20.43;55.18;96420.25;5005325;28;20058;-64
2021/08/07 04:59:21;;;;;;;4.65;2.88;;;;;;;20.94;54.67;96466.06;5005443;28;20050;-64
2021/08/07 05:01:48;;;;;;;6.70;3.53;;;;;;;20.86;54.61;96428.09;5005140;28;20085;-65
2021/08/07 05:04:15;;;;;;;6.93;3.00;;;;;;;21.35;53.94;96477.16;5005526;28;20145;-65
2021/08/07 05:06:44;;;;;;;3.75;2.70;;;;;;;21.62;53.19;96480.25;5005716;28;20049;-65
2021/08/07 05:09:12;;;;;;;4.07;2.67;;;;;;;21.81;52.54;96487.66;5005375;28;20054;-63
2021/08/07 05:11:39;;;;;;;3.35;2.58;;;;;;;22.03;52.43;96482.81;5005367;28;20064;-64
2021/08/07 05:14:06;;;;;;;6.93;3.03;;;;;;;22.28;51.81;96490.34;5005244;28;20050;-62
2021/08/07 05:16:34;;;;;;;12.50;2.92;;;;;;;22.42;51.39;96503.91;5004946;28;20050;-64
2021/08/07 05:19:01;;;;;;;4.95;2.70;;;;;;;22.23;50.60;96435.28;5004061;28;20492;-65
2021/08/07 05:21:28;;;;;;;5.57;3.28;;;;;;;22.89;50.05;96503.72;5004098;28;20137;-66
2021/08/07 05:23:55;;;;;;;3.03;2.47;;;;;;;23.10;49.37;96508.50;5003920;28;20046;-66
2021/08/07 05:26:22;;;;;;;3.30;2.65;;;;;;;23.29;49.57;96513.00;5005587;28;20140;-65
2021/08/07 05:28:48;;;;;;;3.58;2.72;;;;;;;23.21;49.37;96474.94;5004169;28;20506;-65
2021/08/07 05:31:15;;;;;;;3.60;2.55;;;;;;;23.36;48.94;96487.28;5004828;28;20355;-64
2021/08/07 05:33:42;;;;;;;3.00;2.53;;;;;;;23.72;48.27;96526.91;5003676;28;20062;-64
2021/08/07 05:36:09;;;;;;;2.60;2.33;;;;;;;23.93;47.74;96537.31;5004868;28;20046;-66
2021/08/07 05:38:35;;;;;;;3.38;2.50;;;;;;;24.00;47.01;96537.03;5003197;28;20061;-66
2021/08/07 05:41:02;;;;;;;5.32;3.20;;;;;;;24.13;46.53;96551.81;5003366;28;20259;-64
2021/08/07 05:43:29;;;;;;;5.82;2.92;;;;;;;24.24;46.08;96546.47;5003372;28;20054;-66
2021/08/07 05:45:55;;;;;;;3.78;3.35;;;;;;;24.41;45.08;96547.72;5004701;28;20050;-64
2021/08/07 05:48:22;;;;;;;30.95;5.07;;;;;;;24.32;45.45;96522.25;5002761;28;20611;-65
2021/08/07 05:50:49;;;;;;;6.30;3.55;;;;;;;24.72;44.92;96551.16;5003122;28;20068;-65
2021/08/07 05:53:16;;;;;;;5.07;3.20;;;;;;;24.25;43.84;96511.22;5003358;28;20054;-64
2021/08/07 05:55:43;;;;;;;6.30;3.47;;;;;;;23.62;44.44;96460.28;5004982;28;20058;-65
2021/08/07 05:58:09;;;;;;;4.68;2.75;;;;;;;24.31;42.25;96517.06;5004700;28;20348;-64
2021/08/07 06:00:36;;;;;;;3.30;2.92;;;;;;;23.40;42.84;96353.00;4995244;28;20056;-68
2021/08/07 06:03:03;;;;;;;3.13;2.80;;;;;;;24.65;42.22;96540.13;4986717;28;20485;-66
2021/08/07 06:05:30;;;;;;;3.40;3.10;;;;;;;25.04;41.42;96550.44;4984513;28;20061;-64
2021/08/07 06:07:57;;;;;;;3.15;2.95;;;;;;;25.17;41.20;96553.88;5000672;28;20050;-66
2021/08/07 06:10:23;;;;;;;6.38;2.95;;;;;;;25.24;40.44;96555.56;4997486;28;20050;-67
2021/08/07 06:12:50;;;;;;;4.55;2.20;;;;;;;24.92;39.58;96494.75;4984730;28;20513;-67
2021/08/07 06:15:17;;;;;;;3.53;3.05;;;;;;;25.23;39.26;96515.09;4992401;28;20061;-64
2021/08/07 06:17:44;;;;;;;6.18;2.90;;;;;;;25.66;39.25;96564.06;4964727;28;1134839;-66
2021/08/07 06:20:12;;;;;;;3.35;3.05;;;;;;;24.86;39.59;96459.84;4992579;28;20054;-67
2021/08/07 06:22:39;;;;;;;2.78;2.58;;;;;;;24.46;38.97;96394.16;4991345;28;20061;-67
2021/08/07 06:25:07;;;;;;;5.88;2.70;;;;;;;25.69;39.05;96557.44;4988142;28;20128;-67
2021/08/07 06:27:34;;;;;;;3.85;2.92;;;;;;;23.42;39.25;96200.66;4991283;28;20056;-64
2021/08/07 06:30:04;;;;;;;36.47;5.13;;;;;;;25.36;39.25;96528.28;4994824;28;20456;-66
2021/08/07 06:32:30;;;;;;;2.92;2.72;;;;;;;25.51;39.15;96523.50;5005850;28;20077;-65
2021/08/07 06:35:00;;;;;;;2.55;2.35;;;;;;;25.62;39.61;96586.94;5019964;28;20049;-66
2021/08/07 06:37:29;;;;;;;2.75;2.50;;;;;;;25.30;39.62;96531.75;5023564;28;20045;-68
2021/08/07 06:39:56;;;;;;;3.00;2.60;;;;;;;25.46;39.01;96495.78;5023552;28;20059;-69
2021/08/07 06:42:22;;;;;;;5.25;3.13;;;;;;;25.37;38.63;96484.50;5019314;28;20049;-64
2021/08/07 06:44:49;;;;;;;9.52;3.15;;;;;;;25.58;38.89;96574.97;4987025;28;20065;-65
2021/08/07 06:47:16;;;;;;;7.45;3.15;;;;;;;25.50;39.38;96544.63;4988893;28;20058;-67
2021/08/07 06:49:42;;;;;;;4.53;3.03;;;;;;;25.13;39.49;96437.00;4985348;28;20151;-68
2021/08/07 06:52:09;;;;;;;3.92;3.08;;;;;;;26.17;38.69;96570.38;4984592;28;20478;-67
2021/08/07 06:54:36;;;;;;;4.57;4.18;;;;;;;25.70;38.46;96496.56;4992600;28;20053;-66
2021/08/07 06:57:03;;;;;;;5.20;3.38;;;;;;;26.31;37.68;96563.94;4986649;28;20055;-66
2021/08/07 06:59:29;;;;;;;3.63;2.83;;;;;;;26.55;37.17;96582.53;4985458;28;20050;-66
2021/08/07 07:01:56;;;;;;;3.50;2.83;;;;;;;26.82;36.73;96578.69;4983187;28;20050;-66
2021/08/07 07:04:24;;;;;;;3.20;2.50;;;;;;;26.94;36.65;96583.28;4985195;28;20056;-66
2021/08/07 07:06:51;;;;;;;3.13;2.80;;;;;;;27.05;35.91;96589.16;4991785;28;20058;-64
2021/08/07 07:09:17;;;;;;;3.22;2.92;;;;;;;26.41;37.34;96597.47;4992125;28;20058;-67
2021/08/07 07:11:45;;;;;;;3.80;3.08;;;;;;;25.88;38.18;96576.69;4986507;28;20109;-67
2021/08/07 07:14:14;;;;;;;4.60;2.85;;;;;;;26.37;37.78;96601.78;5009990;28;20488;-67
2021/08/07 07:16:42;;;;;;;3.80;2.90;;;;;;;26.32;37.98;96610.97;4992172;28;20080;-65
2021/08/07 07:19:09;;;;;;;2.97;2.70;;;;;;;26.61;37.39;96608.22;4988436;28;20432;-70
2021/08/07 07:21:36;;;;;;;5.22;4.55;;;;;;;26.91;37.45;96601.31;4991933;28;20087;-64
2021/08/07 07:24:03;;;;;;;3.33;3.00;;;;;;;27.14;36.81;96597.59;4997297;28;20827;-67
2021/08/07 07:26:30;;;;;;;3.17;2.97;;;;;;;27.39;36.45;96597.03;4986402;28;20065;-64
2021/08/07 07:28:57;;;;;;;7.22;3.38;;;;;;;27.54;35.62;96594.94;4991741;28;20057;-65
2021/08/07 07:31:25;;;;;;;2.85;2.67;;;;;;;27.24;35.73;96549.91;4999228;28;20125;-62
2021/08/07 07:33:52;;;;;;;5.45;3.20;;;;;;;27.40;35.11;96527.47;4996264;28;20493;-66
2021/08/07 07:36:19;;;;;;;4.63;2.80;;;;;;;28.01;35.19;96602.44;4984973;28;20138;-66
2021/08/07 07:38:46;;;;;;;5.22;3.30;;;;;;;28.12;34.70;96606.19;4985360;28;20058;-68
2021/08/07 07:41:14;;;;;;;2.92;2.63;;;;;;;27.79;35.27;96550.81;4983506;28;20054;-68
2021/08/07 07:43:41;;;;;;;3.05;2.80;;;;;;;28.23;35.11;96601.94;4985500;28;20154;-66
2021/08/07 07:46:09;;;;;;;4.82;3.10;;;;;;;28.18;36.29;96601.34;5003241;28;20050;-64
2021/08/07 07:48:36;;;;;;;7.38;3.28;;;;;;;27.21;37.55;96608.59;4992523;28;20054;-64
2021/08/07 07:51:02;;;;;;;3.92;3.03;;;;;;;26.57;36.93;96446.44;4994262;28;20069;-66
2021/08/07 07:53:29;;;;;;;3.58;3.38;;;;;;;27.65;36.63;96597.97;4990290;28;20128;-65
2021/08/07 07:55:56;;;;;;;6.35;4.60;;;;;;;27.81;35.91;96594.59;4998769;28;20533;-65
2021/08/07 07:58:23;;;;;;;4.68;3.70;;;;;;;26.72;36.06;96477.72;4994068;28;20145;-67
2021/08/07 08:00:50;;;;;;;10.93;6.50;;;;;;;27.22;37.29;96604.47;4986536;28;20066;-63
2021/08/07 08:03:16;;;;;;;16.92;9.60;;;;;;;26.13;36.16;96416.47;4983928;28;20116;-65
2021/08/07 08:05:43;;;;;;;4.35;3.78;;;;;;;27.47;35.72;96564.06;4983202;28;20050;-67
2021/08/07 08:08:10;;;;;;;3.78;2.65;;;;;;;28.00;35.90;96607.31;4991253;28;20056;-67
2021/08/07 08:10:40;;;;;;;5.03;4.00;;;;;;;27.62;34.62;96581.88;4999989;28;20140;-67
2021/08/07 08:13:08;;;;;;;5.85;3.40;;;;;;;27.61;34.03;96602.28;4994924;28;20080;-65
2021/08/07 08:15:37;;;;;;;3.03;2.80;;;;;;;27.85;34.27;96612.25;4990735;28;20058;-62
2021/08/07 08:18:05;;;;;;;3.20;3.00;;;;;;;26.93;35.22;96552.50;4986136;28;20155;-65
2021/08/07 08:20:32;;;;;;;4.03;3.63;;;;;;;26.88;35.73;96468.69;4993138;28;20054;-67
2021/08/07 08:22:59;;;;;;;6.50;4.57;;;;;;;28.01;35.52;96614.59;4983997;28;20061;-66
2021/08/07 08:25:28;;;;;;;7.25;4.10;;;;;;;27.50;35.43;96620.00;4982011;28;20172;-62
2021/08/07 08:27:56;;;;;;;5.40;3.33;;;;;;;27.35;35.42;96539.53;4989445;28;20057;-67
2021/08/07 08:30:23;;;;;;;3.45;3.25;;;;;;;28.11;34.89;96613.19;4995723;28;20138;-66
2021/08/07 08:32:50;;;;;;;3.88;3.58;;;;;;;27.44;34.86;96484.59;4992141;28;20436;-67
2021/08/07 08:35:16;;;;;;;2.92;2.72;;;;;;;27.91;34.97;96604.63;4982734;28;20531;-69
2021/08/07 08:37:43;;;;;;;3.90;3.58;;;;;;;28.10;35.16;96605.13;4983480;28;20046;-63
2021/08/07 08:40:10;;;;;;;5.57;3.75;;;;;;;27.67;34.80;96515.72;5001295;28;20610;-64
2021/08/07 08:42:37;;;;;;;4.63;3.20;;;;;;;28.28;34.20;96615.47;5003249;28;20054;-65
2021/08/07 08:45:05;;;;;;;2.95;2.75;;;;;;;27.01;34.73;96533.78;5001529;28;20053;-66
2021/08/07 08:47:35;;;;;;;5.00;3.88;;;;;;;27.30;34.62;96482.56;5001407;28;20046;-64
2021/08/07 08:50:03;;;;;;;5.95;4.13;;;;;;;27.89;34.10;96518.91;4999165;28;20042;-64
2021/08/07 08:52:31;;;;;;;7.68;7.03;;;;;;;27.77;34.19;96591.16;4988722;28;20553;-65
2021/08/07 08:54:58;;;;;;;5.70;5.20;;;;;;;27.71;34.01;96601.69;4985748;28;20480;-67
2021/08/07 08:57:25;;;;;;;5.38;4.30;;;;;;;27.44;33.71;96491.03;4991866;28;20050;-64
2021/08/07 08:59:52;;;;;;;3.85;3.65;;;;;;;27.85;32.78;96592.31;4988263;28;20401;-63
2021/08/07 09:02:19;;;;;;;3.03;2.70;;;;;;;27.54;33.45;96575.03;4981836;28;20228;-62
2021/08/07 09:04:47;;;;;;;4.18;3.08;;;;;;;27.49;32.82;96550.09;4982197;28;20058;-63
2021/08/07 09:07:15;;;;;;;3.53;3.22;;;;;;;28.18;33.61;96575.72;4966756;28;20090;-63
2021/08/07 09:09:51;;;;;;;3.45;3.13;;;;;;;28.71;32.17;96574.56;4985312;28;20056;-63
2021/08/07 09:12:18;;;;;;;4.05;3.28;;;;;;;28.93;31.94;96551.97;4985320;28;20461;-63
2021/08/07 09:14:47;;;;;;;3.78;3.47;;;;;;;29.18;31.26;96545.50;4985572;28;20050;-63
2021/08/07 09:17:18;;;;;;;2.90;2.70;;;;;;;29.46;30.56;96572.22;4985617;28;20109;-64
2021/08/07 09:19:47;;;;;;;3.30;3.10;;;;;;;29.16;30.97;96570.91;4985285;28;20525;-63
2021/08/07 09:22:17;;;;;;;12.55;9.50;;;;;;;28.64;30.63;96580.72;4986634;28;20061;-64
2021/08/07 09:25:03;;;;;;;2.80;2.65;;;;;;;28.10;31.38;96577.44;4985619;28;20053;-65
2021/08/07 09:27:35;;;;;;;2.85;2.65;;;;;;;28.04;31.10;96585.09;4986590;28;20584;-63
2021/08/07 09:30:24;;;;;;;3.85;2.75;;;;;;;28.34;30.81;96545.09;4986556;28;20054;-64
2021/08/07 09:33:09;;;;;;;4.38;3.97;;;;;;;29.25;30.63;96559.31;4985265;28;20157;-64
2021/08/07 09:35:40;;;;;;;8.25;5.75;;;;;;;29.64;29.67;96562.47;4986484;28;20158;-63
2021/08/07 09:38:41;;;;;;;5.43;4.70;;;;;;;29.52;29.14;96553.03;4985834;28;20098;-66
2021/08/07 09:41:08;;;;;;;2.63;2.53;;;;;;;29.09;27.85;96477.19;4985026;28;20054;-63
2021/08/07 09:43:48;;;;;;;3.60;3.40;;;;;;;29.68;28.18;96543.84;4986583;28;20054;-64
2021/08/07 09:46:25;;;;;;;5.65;4.43;;;;;;;29.19;28.52;96461.47;4985218;28;20149;-64
2021/08/07 09:48:54;;;;;;;3.50;3.30;;;;;;;29.13;29.59;96540.53;4994185;28;20057;-63
2021/08/07 09:51:29;;;;;;;3.45;2.97;;;;;;;29.21;29.29;96550.19;5004168;28;20480;-63
2021/08/07 09:54:02;;;;;;;3.47;3.28;;;;;;;29.48;29.26;96552.50;5004057;28;20073;-64
2021/08/07 09:56:57;;;;;;;3.00;2.80;;;;;;;30.08;28.75;96537.81;5004920;28;20062;-63
2021/08/07 09:59:27;;;;;;;3.38;3.17;;;;;;;30.45;28.45;96529.97;5004486;28;20331;-62
2021/08/07 10:01:55;;;;;;;3.55;2.97;;;;;;;30.88;27.66;96525.69;5005510;28;20072;-63
2021/08/07 10:04:23;;;;;;;5.72;3.80;;;;;;;31.02;27.10;96534.53;5006034;28;20060;-64
2021/08/07 10:07:06;;;;;;;6.50;4.85;;;;;;;31.01;27.34;96504.38;5004561;28;20080;-63
2021/08/07 10:09:34;;;;;;;3.03;2.72;;;;;;;30.90;26.58;96488.75;5005945;28;20081;-64
2021/08/07 10:12:10;;;;;;;2.83;2.72;;;;;;;30.72;26.69;96466.34;5005851;28;20054;-64
2021/08/07 10:14:38;;;;;;;2.70;2.60;;;;;;;31.35;26.12;96541.09;5004600;28;20064;-64
2021/08/07 10:17:07;;;;;;;3.05;2.83;;;;;;;31.57;25.84;96534.59;5004618;28;20136;-62
2021/08/07 10:19:35;;;;;;;3.15;2.95;;;;;;;31.83;25.40;96535.06;5005123;28;20080;-63
2021/08/07 10:22:07;;;;;;;3.38;3.17;;;;;;;31.52;25.69;96526.78;5004969;28;20068;-64
2021/08/07 10:24:36;;;;;;;3.28;3.08;;;;;;;31.74;25.88;96518.16;5003488;28;20046;-65
2021/08/07 10:27:04;;;;;;;4.75;3.35;;;;;;;31.62;26.48;96457.25;5003588;28;20073;-63
2021/08/07 10:29:38;;;;;;;3.42;3.22;;;;;;;32.35;25.28;96530.22;5005011;28;20060;-62
2021/08/07 10:32:06;;;;;;;3.65;3.38;;;;;;;32.07;25.85;96526.69;5003309;28;20539;-63
2021/08/07 10:34:37;;;;;;;2.70;2.50;;;;;;;32.24;25.83;96524.53;5004158;28;20064;-63
2021/08/07 10:37:04;;;;;;;3.10;2.92;;;;;;;32.39;26.26;96530.75;5003493;28;20062;-63
2021/08/07 10:39:32;;;;;;;3.88;3.47;;;;;;;32.68;26.28;96518.63;5004974;28;20054;-64
2021/08/07 10:42:03;;;;;;;5.50;4.18;;;;;;;32.59;25.55;96521.81;5004421;28;20180;-63
2021/08/07 10:44:32;;;;;;;3.85;3.50;;;;;;;31.43;26.62;96519.22;5005162;28;20181;-63
2021/08/07 10:47:00;;;;;;;3.33;3.13;;;;;;;30.35;27.06;96427.81;5002238;28;20575;-64
2021/08/07 10:49:35;;;;;;;3.20;3.00;;;;;;;30.72;27.58;96526.41;5003269;28;20057;-62
2021/08/07 10:52:22;;;;;;;4.38;4.00;;;;;;;31.34;27.50;96518.72;5004618;28;20057;-64
2021/08/07 10:54:50;;;;;;;4.68;3.05;;;;;;;30.91;27.19;96527.53;5003550;28;20065;-63
2021/08/07 10:57:37;;;;;;;3.95;3.67;;;;;;;31.26;27.08;96549.13;5004448;28;20084;-62
2021/08/07 11:00:16;;;;;;;3.47;3.17;;;;;;;31.30;27.31;96526.75;5004666;28;20060;-62
2021/08/07 11:02:44;;;;;;;2.75;2.65;;;;;;;30.89;26.99;96429.97;5002879;28;20116;-63
2021/08/07 11:05:12;;;;;;;3.05;2.60;;;;;;;31.78;27.03;96515.78;5000939;28;20120;-63
2021/08/07 11:07:39;;;;;;;3.13;2.80;;;;;;;32.12;25.97;96520.16;5002179;28;20046;-64
2021/08/07 11:10:10;;;;;;;2.67;2.58;;;;;;;32.31;25.93;96524.00;5001115;28;20061;-64
2021/08/07 11:12:45;;;;;;;3.40;3.20;;;;;;;32.51;25.86;96489.25;5001612;28;20141;-64
2021/08/07 11:15:15;;;;;;;3.55;3.25;;;;;;;32.75;25.77;96475.03;5003201;28;20053;-61
2021/08/07 11:17:44;;;;;;;3.30;3.10;;;;;;;32.63;25.82;96481.38;5001370;28;20068;-63
2021/08/07 11:20:34;;;;;;;7.45;6.68;;;;;;;31.69;27.37;96513.22;5002757;28;20072;-62
2021/08/07 11:23:00;;;;;;;17.25;10.38;;;;;;;31.65;27.41;96506.94;5003068;28;20056;-64
2021/08/07 11:25:27;;;;;;;5.50;4.75;;;;;;;32.12;27.74;96523.03;5004357;28;20352;-63
2021/08/07 11:28:03;;;;;;;5.53;4.90;;;;;;;31.63;27.88;96518.19;5004468;28;20068;-63
2021/08/07 11:30:39;;;;;;;5.10;4.60;;;;;;;32.02;27.69;96518.88;5004203;28;20460;-65
2021/08/07 11:33:09;;;;;;;6.50;5.60;;;;;;;32.02;28.25;96510.28;5003040;28;20058;-62
2021/08/07 11:35:39;;;;;;;9.32;6.60;;;;;;;31.29;29.03;96508.00;5002866;28;20061;-63
2021/08/07 11:38:05;;;;;;;5.22;3.60;;;;;;;31.16;29.03;96510.63;5003933;28;20060;-63
2021/08/07 11:40:55;;;;;;;5.72;4.10;;;;;;;31.55;28.11;96497.84;5001979;28;20535;-64